Corona Range LRC

2021-10-22 03:00:00

  • imperial
Date Time Air Temperature Relative Humidity Dewpoint Windchill Heat Index Wind Speed Wind Dir. Rain Solar Radiation Soil Temperature
2m 2m 3m 3m 10cm
US/Mountain F % F F F MPH deg in MJ/m^2 F
max avg avg
2021-10-21 03:15:00 37.5 47.3 19.3 33.6 37.5 4.9 5.1 4.2 242.1 242.6 0.00 0.0000000 57.1
2021-10-21 03:20:00 38.4 46.7 19.7 35.1 38.4 4.4 4.7 4.2 240.8 262.9 0.00 0.0000000 57.0
2021-10-21 03:25:00 38.3 46.3 19.5 36.3 38.3 3.1 4.6 3.6 243.0 255.1 0.00 0.0000000 56.9
2021-10-21 03:30:00 38.2 46.7 19.5 38.2 38.2 2.4 4.0 3.4 266.2 255.7 0.00 0.0000000 56.8
2021-10-21 03:35:00 37.3 47.6 19.2 34.7 37.3 3.5 3.5 2.9 232.4 235.1 0.00 0.0000000 56.8
2021-10-21 03:40:00 35.7 50.0 18.9 31.9 35.7 4.4 4.6 4.0 227.3 216.0 0.00 0.0000000 56.7
2021-10-21 03:45:00 35.6 50.5 19.0 32.0 35.6 4.2 4.6 3.8 226.5 233.7 0.00 0.0000000 56.6
2021-10-21 03:50:00 36.1 50.3 19.4 33.4 36.1 3.5 4.7 4.1 138.9 211.1 0.00 0.0000000 56.6
2021-10-21 03:55:00 37.1 48.2 19.3 34.5 37.1 3.5 4.7 3.6 234.8 204.1 0.00 0.0000000 56.5
2021-10-21 04:00:00 36.5 48.9 19.1 36.5 36.5 3.0 3.8 3.3 209.5 209.9 0.00 0.0000000 56.4
2021-10-21 04:05:00 36.1 49.9 19.2 36.1 36.1 2.8 3.5 2.8 234.4 214.7 0.00 0.0000000 56.3
2021-10-21 04:10:00 37.9 47.6 19.7 35.0 37.9 3.8 4.4 3.2 289.9 250.3 0.00 0.0000000 56.3
2021-10-21 04:15:00 40.8 42.8 19.9 37.3 40.8 5.1 6.5 4.2 291.8 279.3 0.00 0.0000000 56.2
2021-10-21 04:20:00 42.5 40.6 20.2 39.4 42.5 5.1 5.6 4.7 285.2 277.3 0.00 0.0000000 56.1
2021-10-21 04:25:00 43.4 39.6 20.4 41.5 43.4 3.7 5.5 4.3 309.1 288.0 0.00 0.0000000 56.0
2021-10-21 04:30:00 42.8 40.4 20.4 41.1 42.8 3.5 4.6 3.7 283.2 280.7 0.00 0.0000000 56.0
2021-10-21 04:35:00 41.7 42.2 20.4 38.7 41.7 4.7 4.7 3.7 305.2 284.7 0.00 0.0000000 55.9
2021-10-21 04:40:00 42.2 41.4 20.4 39.3 42.2 4.7 5.8 5.1 308.0 296.1 0.00 0.0000000 55.8
2021-10-21 04:45:00 43.1 40.6 20.7 39.5 43.1 5.8 5.8 5.0 255.7 281.2 0.00 0.0000000 55.7
2021-10-21 04:50:00 41.7 43.0 20.8 39.4 41.7 3.8 5.5 3.8 303.3 277.5 0.00 0.0000000 55.7
2021-10-21 04:55:00 42.5 40.7 20.3 39.1 42.5 5.5 6.0 4.8 301.4 287.4 0.00 0.0000000 55.6
2021-10-21 05:00:00 43.1 39.9 20.4 40.2 43.1 4.9 6.0 5.0 291.6 276.8 0.00 0.0000000 55.5
2021-10-21 05:05:00 42.7 40.7 20.4 40.0 42.7 4.6 5.3 4.6 169.9 281.4 0.00 0.0000000 55.4
2021-10-21 05:10:00 41.9 41.8 20.4 39.0 41.9 4.6 4.9 4.4 244.4 267.9 0.00 0.0000000 55.4
2021-10-21 05:15:00 42.1 41.2 20.2 40.4 42.1 3.3 5.1 4.3 254.1 263.6 0.00 0.0000000 55.3
2021-10-21 05:20:00 40.5 42.1 19.3 37.7 40.5 4.2 5.6 4.4 205.9 231.2 0.00 0.0000000 55.2
2021-10-21 05:25:00 38.2 46.6 19.5 36.2 38.2 3.1 4.9 4.2 241.8 236.2 0.00 0.0000000 55.1
2021-10-21 05:30:00 37.6 48.7 20.0 33.7 37.6 4.9 5.1 3.6 264.1 234.6 0.00 0.0000000 55.1
2021-10-21 05:35:00 41.1 42.6 20.1 37.8 41.1 4.9 5.5 4.6 286.5 256.1 0.00 0.0000000 55.0
2021-10-21 05:40:00 41.7 41.8 20.1 38.1 41.7 5.5 5.6 4.9 268.5 267.9 0.00 0.0000000 55.0
2021-10-21 05:45:00 40.9 42.9 20.1 37.2 40.9 5.5 6.3 5.2 163.7 270.1 0.00 0.0000000 54.9
2021-10-21 05:50:00 41.7 41.5 20.0 38.0 41.7 5.6 6.0 5.3 295.1 269.1 0.00 0.0000000 54.8
2021-10-21 05:55:00 42.1 41.0 20.1 38.6 42.1 5.5 7.1 6.0 276.4 274.5 0.00 0.0000000 54.8
2021-10-21 06:00:00 42.8 39.9 20.0 39.3 42.8 5.6 6.9 5.8 312.2 273.2 0.00 0.0000000 54.7
2021-10-21 06:05:00 42.7 40.4 20.3 39.8 42.7 4.7 5.8 4.8 230.5 281.5 0.00 0.0000000 54.6
2021-10-21 06:10:00 41.2 42.4 20.0 37.9 41.2 4.9 5.8 4.9 268.0 268.8 0.00 0.0000000 54.6
2021-10-21 06:15:00 40.8 42.7 19.8 37.0 40.8 5.5 6.0 5.1 275.2 277.9 0.00 0.0000000 54.5
2021-10-21 06:20:00 39.7 43.7 19.4 36.4 39.7 4.6 6.0 4.5 242.5 253.9 0.00 0.0000000 54.4
2021-10-21 06:25:00 38.9 44.5 19.1 34.6 38.9 5.8 6.2 5.4 213.0 250.6 0.00 0.0000000 54.4
2021-10-21 06:30:00 38.5 45.1 19.1 33.9 38.5 6.2 6.5 5.7 268.8 263.5 0.00 0.0000000 54.3
2021-10-21 06:35:00 37.8 45.9 18.8 33.2 37.8 6.0 6.3 5.8 260.4 267.8 0.00 0.0000000 54.3
2021-10-21 06:40:00 37.7 46.3 18.9 33.8 37.7 4.9 6.2 4.9 265.6 273.9 0.00 0.0000000 54.2
2021-10-21 06:45:00 37.5 46.1 18.6 33.2 37.5 5.5 5.6 5.3 254.2 266.9 0.00 0.0000000 54.2
2021-10-21 06:50:00 38.6 44.1 18.6 33.9 38.6 6.2 6.2 5.3 247.3 266.6 0.00 0.0000000 54.1
2021-10-21 06:55:00 38.0 45.1 18.6 33.3 38.0 6.0 6.5 5.4 270.5 270.9 0.00 0.0000000 54.1
2021-10-21 07:00:00 37.8 44.9 18.3 33.8 37.8 5.1 6.5 5.7 259.2 259.7 0.00 0.0000000 54.0
2021-10-21 07:05:00 36.7 46.3 18.0 32.4 36.7 5.3 7.2 5.7 276.5 268.4 0.00 0.0000000 53.9
2021-10-21 07:10:00 37.2 45.4 18.0 32.7 37.2 5.6 6.0 5.1 293.3 274.9 0.00 0.0000000 53.9
2021-10-21 07:15:00 39.2 41.8 17.9 34.9 39.2 5.8 6.3 5.2 262.8 261.6 0.00 0.0001328 53.8
2021-10-21 07:20:00 40.9 39.2 17.9 36.4 40.9 6.7 7.1 6.2 269.8 262.1 0.00 0.0026746 53.8
2021-10-21 07:25:00 41.8 38.2 18.1 38.0 41.8 5.8 7.2 6.1 285.7 273.6 0.00 0.0055681 53.7
2021-10-21 07:30:00 42.1 37.8 18.2 37.9 42.1 6.5 7.6 6.0 289.1 267.4 0.00 0.0081763 53.7
2021-10-21 07:35:00 41.8 38.2 18.1 37.4 41.8 6.7 7.2 6.0 217.8 271.7 0.00 0.0105922 53.6
2021-10-21 07:40:00 43.0 36.1 17.9 39.3 43.0 6.0 8.1 6.6 275.1 267.1 0.00 0.0135788 53.6
2021-10-21 07:45:00 43.5 35.5 18.0 40.1 43.5 5.6 6.7 5.9 273.8 267.6 0.00 0.0160731 53.5
2021-10-21 07:50:00 44.1 34.9 18.1 41.1 44.1 5.3 7.1 5.6 264.5 273.0 0.00 0.0186903 53.5
2021-10-21 07:55:00 44.8 34.4 18.4 41.6 44.8 5.8 7.1 5.6 268.0 266.6 0.00 0.0213853 53.4
2021-10-21 08:00:00 46.2 33.5 19.0 43.9 46.2 4.7 6.2 5.3 264.6 253.5 0.00 0.0241897 53.4
2021-10-21 08:05:00 47.8 32.2 19.5 45.2 47.8 5.6 6.3 5.1 255.7 254.0 0.00 0.0267053 53.3
2021-10-21 08:10:00 49.7 29.9 19.4 46.8 49.7 7.2 7.2 6.1 253.7 251.0 0.00 0.0300624 53.3
2021-10-21 08:15:00 51.7 28.4 19.9 51.7 51.7 6.7 7.2 6.2 249.7 250.2 0.00 0.0329109 53.2
2021-10-21 08:20:00 53.1 26.7 19.7 53.1 53.1 8.0 8.0 6.5 247.8 244.5 0.00 0.0355766 53.2
2021-10-21 08:25:00 54.0 26.4 20.1 54.0 54.0 5.3 8.0 6.4 267.1 249.0 0.00 0.0382153 53.1
2021-10-21 08:30:00 54.6 26.0 20.4 54.6 54.6 5.1 8.0 5.9 269.5 254.8 0.00 0.0410386 53.1
2021-10-21 08:35:00 55.4 25.0 20.1 55.4 55.4 6.2 8.3 6.3 259.9 262.0 0.00 0.0437877 53.0
2021-10-21 08:40:00 56.2 24.3 20.2 56.2 56.2 6.5 7.6 6.0 279.3 268.2 0.00 0.0465247 53.0
2021-10-21 08:45:00 57.2 23.6 20.3 57.2 57.2 8.0 8.8 6.7 259.3 270.1 0.00 0.0495538 53.0
2021-10-21 08:50:00 57.8 22.7 19.9 57.8 57.8 9.0 9.0 7.0 245.0 276.5 0.00 0.0526244 52.9
2021-10-21 08:55:00 57.9 22.8 20.0 57.9 57.9 6.9 9.2 6.9 263.1 280.8 0.00 0.0553532 52.9
2021-10-21 09:00:00 57.9 23.1 20.4 57.9 57.9 5.6 10.1 7.7 274.0 275.4 0.00 0.0581063 52.9
2021-10-21 09:05:00 58.3 22.5 20.2 58.3 58.3 6.9 8.8 6.5 287.6 287.5 0.00 0.0611673 52.8
2021-10-21 09:10:00 57.9 22.9 20.2 57.9 57.9 5.6 9.0 7.2 278.6 281.5 0.00 0.0637495 52.8
2021-10-21 09:15:00 58.2 23.0 20.6 58.2 58.2 5.3 8.3 6.4 283.1 283.0 0.00 0.0669185 52.8
2021-10-21 09:20:00 59.0 21.7 19.9 59.0 59.0 6.0 8.0 5.8 270.8 284.1 0.00 0.0700192 52.8
2021-10-21 09:25:00 59.5 20.9 19.3 59.5 59.5 8.7 9.7 7.5 231.8 279.5 0.00 0.0726934 52.8
2021-10-21 09:30:00 59.5 21.1 19.6 59.5 59.5 4.7 9.7 7.5 270.9 270.1 0.00 0.0758465 52.8
2021-10-21 09:35:00 60.7 20.3 19.7 60.7 60.7 6.5 8.8 6.2 272.7 274.6 0.00 0.0789368 52.8
2021-10-21 09:40:00 60.9 20.4 20.0 60.9 60.9 8.7 11.2 7.8 274.5 274.5 0.00 0.0814900 52.9
2021-10-21 09:45:00 61.8 19.4 19.6 61.8 61.8 5.6 9.7 7.3 296.4 271.3 0.00 0.0846561 52.9
2021-10-21 09:50:00 62.7 19.4 20.3 62.7 62.7 6.7 9.2 6.6 299.4 273.3 0.00 0.0870947 52.9
2021-10-21 09:55:00 62.3 19.1 19.7 62.3 62.3 7.4 10.1 7.9 251.7 270.9 0.00 0.0894061 52.9
2021-10-21 10:00:00 62.3 19.6 20.2 62.3 62.3 7.1 9.6 7.5 246.6 264.9 0.00 0.0921103 53.0
2021-10-21 10:05:00 62.7 19.6 20.6 62.7 62.7 6.3 10.8 7.6 278.7 263.3 0.00 0.0949043 53.0
2021-10-21 10:10:00 63.9 18.7 20.5 63.9 63.9 9.4 9.4 7.2 313.4 269.2 0.00 0.0976118 53.1
2021-10-21 10:15:00 63.8 19.5 21.3 63.8 63.8 7.6 10.1 7.7 281.9 268.3 0.00 0.0997524 53.1
2021-10-21 10:20:00 64.3 19.2 21.4 64.3 64.3 4.7 9.9 6.9 298.8 276.3 0.00 0.1022526 53.2
2021-10-21 10:25:00 64.7 19.1 21.5 64.7 64.7 8.0 10.1 7.5 273.9 273.6 0.00 0.1043876 53.2
2021-10-21 10:30:00 65.1 18.8 21.6 65.1 65.1 6.5 10.6 7.2 239.8 257.2 0.00 0.1064483 53.3
2021-10-21 10:35:00 65.7 17.8 20.7 65.7 65.7 7.1 11.2 8.4 234.7 254.1 0.00 0.1088491 53.4
2021-10-21 10:40:00 65.7 18.3 21.4 65.7 65.7 5.6 9.6 6.8 265.2 259.2 0.00 0.1105140 53.4
2021-10-21 10:45:00 65.5 18.1 21.0 65.5 65.5 8.0 8.7 6.8 286.5 286.7 0.00 0.1122137 53.5
2021-10-21 10:50:00 66.8 18.0 21.9 66.8 66.8 4.9 8.5 6.3 265.1 260.3 0.00 0.1140928 53.6
2021-10-21 10:55:00 67.3 16.9 20.9 67.3 67.3 6.2 6.2 4.1 306.0 268.9 0.00 0.1149586 53.7
2021-10-21 11:00:00 67.4 16.6 20.5 67.4 67.4 5.8 8.7 4.6 270.6 292.0 0.00 0.1163690 53.8
2021-10-21 11:05:00 67.6 16.6 20.7 67.6 67.6 6.2 13.3 8.4 291.2 242.1 0.00 0.1185902 53.9
2021-10-21 11:10:00 68.5 15.6 19.9 68.5 68.5 9.2 11.9 9.0 259.4 282.8 0.00 0.1208622 54.0
2021-10-21 11:15:00 68.2 16.2 20.5 68.2 68.2 9.2 11.0 7.6 270.5 279.8 0.00 0.1227315 54.1
2021-10-21 11:20:00 68.4 15.6 19.9 68.4 68.4 5.8 10.5 7.9 239.7 285.4 0.00 0.1239142 54.3
2021-10-21 11:25:00 68.6 16.1 20.7 68.6 68.6 8.7 11.0 7.9 297.4 286.1 0.00 0.1254544 54.4
2021-10-21 11:30:00 68.4 15.3 19.4 68.4 68.4 11.5 11.5 7.9 320.5 291.6 0.00 0.1264785 54.6
2021-10-21 11:35:00 69.3 14.8 19.3 69.3 69.3 7.2 12.2 8.3 214.8 269.3 0.00 0.1278611 54.7
2021-10-21 11:40:00 69.3 15.2 20.0 69.3 69.3 9.4 10.6 6.6 263.4 274.8 0.00 0.1287772 54.9
2021-10-21 11:45:00 69.7 14.6 19.3 69.7 69.7 10.5 11.9 8.3 246.1 274.3 0.00 0.1294485 55.0
2021-10-21 11:50:00 69.7 14.6 19.3 69.7 69.7 4.4 9.6 6.8 223.2 250.9 0.00 0.1303036 55.2
2021-10-21 11:55:00 70.4 13.0 17.2 70.4 70.4 11.7 14.2 9.7 281.0 248.4 0.00 0.1316357 55.4
2021-10-21 12:00:00 70.2 13.7 18.2 70.2 70.2 8.5 12.1 7.6 243.8 253.3 0.00 0.1329733 55.6
2021-10-21 12:05:00 70.8 12.6 16.8 70.8 70.8 8.7 14.7 10.0 270.3 232.4 0.00 0.1335638 55.8
2021-10-21 12:10:00 71.1 11.8 15.4 71.1 71.1 9.0 11.0 8.7 242.8 256.1 0.00 0.1346449 56.0
2021-10-21 12:15:00 70.8 12.3 16.2 70.8 70.8 8.5 11.5 7.7 211.7 230.0 0.00 0.1343895 56.2
2021-10-21 12:20:00 71.2 12.9 17.5 71.2 71.2 9.2 12.8 7.1 176.4 248.1 0.00 0.1350490 56.4
2021-10-21 12:25:00 71.4 12.0 16.1 71.4 71.4 12.4 14.6 9.6 219.7 248.5 0.00 0.1348970 56.6
2021-10-21 12:30:00 71.2 11.8 15.5 71.2 71.2 9.4 13.3 9.3 241.7 266.2 0.00 0.1360790 56.9
2021-10-21 12:35:00 72.0 12.0 16.5 72.0 72.0 7.8 11.5 7.5 243.2 259.1 0.00 0.1362028 57.1
2021-10-21 12:40:00 71.3 11.8 15.7 71.3 71.3 10.6 12.8 10.5 232.2 249.1 0.00 0.1360003 57.3
2021-10-21 12:45:00 71.7 11.9 16.1 71.7 71.7 7.8 11.5 8.6 275.2 256.7 0.00 0.1362420 57.5
2021-10-21 12:50:00 71.4 11.3 14.7 71.4 71.4 12.4 12.4 8.7 283.9 284.3 0.00 0.1356591 57.8
2021-10-21 12:55:00 71.6 11.9 16.0 71.6 71.6 11.9 13.5 10.2 277.5 250.0 0.00 0.1363713 58.0
2021-10-21 13:00:00 71.9 11.8 16.0 71.9 71.9 6.0 14.4 10.1 242.3 254.0 0.00 0.1361277 58.2
2021-10-21 13:05:00 72.1 11.6 15.9 72.1 72.1 12.6 15.6 8.4 262.6 264.7 0.00 0.1351702 58.4
2021-10-21 13:10:00 71.7 11.1 14.5 71.7 71.7 6.0 12.8 8.5 307.3 255.3 0.00 0.1350215 58.6
2021-10-21 13:15:00 72.2 11.0 14.8 72.2 72.2 13.0 13.0 6.7 269.5 242.3 0.00 0.1344499 58.9
2021-10-21 13:20:00 72.2 10.5 13.8 72.2 72.2 6.5 16.0 10.5 280.1 234.0 0.00 0.1337387 59.1
2021-10-21 13:25:00 72.1 10.8 14.3 72.1 72.1 10.1 15.5 10.0 253.5 246.6 0.00 0.1336321 59.3
2021-10-21 13:30:00 72.8 9.7 12.5 72.8 72.8 13.1 14.9 9.8 224.0 242.5 0.00 0.1329814 59.6
2021-10-21 13:35:00 72.4 9.6 11.7 72.4 72.4 11.2 14.6 11.4 247.1 233.6 0.00 0.1321477 59.8
2021-10-21 13:40:00 72.9 9.3 11.4 72.9 72.9 13.1 16.4 13.0 230.0 240.4 0.00 0.1314494 60.0
2021-10-21 13:45:00 72.4 9.3 11.0 72.4 72.4 6.9 13.9 10.2 242.4 212.1 0.00 0.1298393 60.2
2021-10-21 13:50:00 72.5 9.3 11.2 72.5 72.5 8.1 16.5 11.2 230.7 254.5 0.00 0.1292781 60.4
2021-10-21 13:55:00 73.3 9.0 11.1 73.3 73.3 8.5 16.9 12.6 276.7 258.2 0.00 0.1285964 60.7
2021-10-21 14:00:00 73.8 8.8 10.8 73.8 73.8 9.9 14.2 9.7 260.6 251.3 0.00 0.1274088 60.9
2021-10-21 14:05:00 74.0 8.4 10.1 74.0 74.0 13.7 18.1 9.6 265.5 262.1 0.00 0.1259102 61.1
2021-10-21 14:10:00 73.5 8.6 10.0 73.5 73.5 13.1 13.3 10.6 220.8 239.8 0.00 0.1240807 61.3
2021-10-21 14:15:00 73.9 8.0 9.0 73.9 73.9 14.0 16.7 11.3 263.2 239.6 0.00 0.1226616 61.6
2021-10-21 14:20:00 73.3 8.5 9.7 73.3 73.3 10.1 16.4 10.4 247.4 256.9 0.00 0.1210468 61.8
2021-10-21 14:25:00 72.8 8.8 10.2 72.8 72.8 6.9 15.6 11.8 269.9 267.4 0.00 0.1193430 62.0
2021-10-21 14:30:00 73.1 8.6 9.7 73.1 73.1 12.2 15.1 9.3 256.7 276.1 0.00 0.1174309 62.2
2021-10-21 14:35:00 73.2 8.5 9.6 73.2 73.2 8.8 17.8 10.5 274.5 260.7 0.00 0.1154319 62.4
2021-10-21 14:40:00 73.3 8.8 10.6 73.3 73.3 8.7 12.2 8.8 236.2 262.9 0.00 0.1136161 62.7
2021-10-21 14:45:00 72.8 8.5 9.3 72.8 72.8 13.7 15.1 10.7 246.6 248.2 0.00 0.1118532 62.9
2021-10-21 14:50:00 74.2 7.7 8.2 74.2 74.2 11.0 16.4 10.6 221.6 233.2 0.00 0.1103926 63.1
2021-10-21 14:55:00 74.0 7.4 7.3 74.0 74.0 15.5 18.7 12.7 237.2 242.7 0.00 0.1079930 63.2
2021-10-21 15:00:00 73.1 7.4 6.6 73.1 73.1 15.5 17.8 13.3 252.3 239.0 0.00 0.1058103 63.5
2021-10-21 15:05:00 73.1 7.8 7.7 73.1 73.1 8.7 15.5 10.7 264.9 263.9 0.00 0.1037411 63.6
2021-10-21 15:10:00 73.9 7.1 6.3 73.9 73.9 18.3 18.3 11.4 238.2 260.2 0.00 0.1016659 63.8
2021-10-21 15:15:00 73.1 7.3 6.1 73.1 73.1 8.8 16.2 13.1 216.9 248.9 0.00 0.0984823 64.0
2021-10-21 15:20:00 73.5 7.3 6.5 73.5 73.5 8.0 15.5 9.5 244.3 258.8 0.00 0.0962167 64.2
2021-10-21 15:25:00 73.1 7.1 5.5 73.1 73.1 12.8 16.2 10.3 287.8 276.0 0.00 0.0935739 64.4
2021-10-21 15:30:00 72.8 6.4 3.3 72.8 72.8 12.6 15.8 12.1 271.7 268.6 0.00 0.0909922 64.5
2021-10-21 15:35:00 72.7 7.2 5.4 72.7 72.7 10.1 13.3 9.9 306.0 284.6 0.00 0.0883856 64.7
2021-10-21 15:40:00 73.4 7.5 6.9 73.4 73.4 13.9 16.4 11.6 275.6 264.1 0.00 0.0857480 64.9
2021-10-21 15:45:00 72.8 7.6 6.9 72.8 72.8 8.5 14.2 9.3 256.7 283.4 0.00 0.0825160 65.0
2021-10-21 15:50:00 73.6 6.8 5.0 73.6 73.6 11.3 14.6 9.5 294.6 269.6 0.00 0.0797516 65.1
2021-10-21 15:55:00 73.1 7.6 7.1 73.1 73.1 10.1 14.2 10.4 292.6 268.1 0.00 0.0769382 65.3
2021-10-21 16:00:00 72.7 7.1 5.4 72.7 72.7 9.2 14.9 10.9 285.8 267.4 0.00 0.0741945 65.4
2021-10-21 16:05:00 73.1 7.2 5.8 73.1 73.1 14.2 14.2 9.5 268.5 267.4 0.00 0.0715795 65.6
2021-10-21 16:10:00 73.1 8.0 8.3 73.1 73.1 11.9 15.5 11.2 237.5 246.0 0.00 0.0687987 65.7
2021-10-21 16:15:00 72.7 7.6 6.9 72.7 72.7 10.1 14.9 11.0 234.5 252.4 0.00 0.0660019 65.8
2021-10-21 16:20:00 72.2 6.7 3.8 72.2 72.2 12.2 16.9 10.4 249.2 266.7 0.00 0.0629433 65.9
2021-10-21 16:25:00 72.1 7.6 6.4 72.1 72.1 9.7 15.5 11.7 298.9 269.2 0.00 0.0602431 66.1
2021-10-21 16:30:00 72.1 7.9 7.3 72.1 72.1 11.3 17.1 11.5 238.4 268.1 0.00 0.0574690 66.2
2021-10-21 16:35:00 71.9 7.4 5.7 71.9 71.9 10.5 15.3 11.0 268.9 270.2 0.00 0.0545774 66.3
2021-10-21 16:40:00 71.6 7.4 5.4 71.6 71.6 11.3 14.9 10.7 278.6 269.0 0.00 0.0515034 66.3
2021-10-21 16:45:00 71.6 7.8 6.7 71.6 71.6 8.7 13.5 9.9 267.3 269.9 0.00 0.0485672 66.4
2021-10-21 16:50:00 71.5 8.1 7.3 71.5 71.5 9.7 14.0 11.1 265.9 268.9 0.00 0.0458366 66.5
2021-10-21 16:55:00 71.0 8.0 6.6 71.0 71.0 11.7 15.1 11.8 268.0 273.0 0.00 0.0429883 66.6
2021-10-21 17:00:00 71.2 8.0 6.9 71.2 71.2 10.5 14.6 10.9 258.7 263.0 0.00 0.0403633 66.7
2021-10-21 17:05:00 70.7 7.6 5.4 70.7 70.7 8.7 14.0 11.6 275.1 266.0 0.00 0.0375865 66.7
2021-10-21 17:10:00 70.4 8.0 6.2 70.4 70.4 8.8 14.6 10.7 281.7 278.8 0.00 0.0346269 66.8
2021-10-21 17:15:00 70.4 8.1 6.5 70.4 70.4 12.1 14.7 11.6 251.0 264.5 0.00 0.0320711 66.8
2021-10-21 17:20:00 70.4 8.2 6.7 70.4 70.4 8.8 14.0 10.5 243.4 247.9 0.00 0.0292668 66.8
2021-10-21 17:25:00 69.9 8.5 7.1 69.9 69.9 6.5 14.0 9.9 283.4 262.6 0.00 0.0257656 66.8
2021-10-21 17:30:00 69.6 8.4 6.8 69.6 69.6 9.2 14.7 10.3 287.8 268.7 0.00 0.0238170 66.8
2021-10-21 17:35:00 69.3 9.0 8.0 69.3 69.3 8.8 13.3 9.8 265.2 269.2 0.00 0.0214038 66.8
2021-10-21 17:40:00 69.1 9.2 8.2 69.1 69.1 7.2 12.2 8.9 245.2 262.4 0.00 0.0190902 66.8
2021-10-21 17:45:00 68.7 9.2 8.1 68.7 68.7 9.7 12.6 9.2 282.4 265.0 0.00 0.0167102 66.8
2021-10-21 17:50:00 68.2 9.9 9.2 68.2 68.2 8.3 14.0 9.8 254.2 268.1 0.00 0.0145571 66.8
2021-10-21 17:55:00 67.8 10.0 9.2 67.8 67.8 9.7 11.0 7.8 266.9 270.7 0.00 0.0120261 66.8
2021-10-21 18:00:00 67.4 10.4 9.8 67.4 67.4 5.3 10.6 7.4 250.6 265.1 0.00 0.0092810 66.8
2021-10-21 18:05:00 66.3 11.5 11.2 66.3 66.3 7.8 11.7 7.2 262.5 271.9 0.00 0.0028488 66.8
2021-10-21 18:10:00 65.2 12.4 12.0 65.2 65.2 4.7 7.8 6.2 278.7 275.6 0.00 0.0000000 66.7
2021-10-21 18:15:00 64.2 12.9 12.0 64.2 64.2 4.7 6.7 5.2 269.5 277.8 0.00 0.0000000 66.7
2021-10-21 18:20:00 63.1 13.5 12.3 63.1 63.1 4.2 5.8 4.4 287.7 286.3 0.00 0.0000000 66.6
2021-10-21 18:25:00 61.9 14.0 12.1 61.9 61.9 3.8 4.2 3.5 276.7 270.0 0.00 0.0000000 66.6
2021-10-21 18:30:00 61.6 14.2 12.2 61.6 61.6 4.0 5.1 4.1 295.3 287.2 0.00 0.0000000 66.5
2021-10-21 18:35:00 60.7 14.8 12.3 60.7 60.7 4.0 4.7 3.9 276.8 283.2 0.00 0.0000000 66.5
2021-10-21 18:40:00 59.0 15.7 12.4 59.0 59.0 4.2 4.7 4.0 274.9 279.3 0.00 0.0000000 66.4
2021-10-21 18:45:00 58.2 16.2 12.5 58.2 58.2 3.8 4.2 3.8 281.5 279.5 0.00 0.0000000 66.4
2021-10-21 18:50:00 58.0 16.4 12.5 58.0 58.0 3.5 4.2 3.6 296.6 286.2 0.00 0.0000000 66.3
2021-10-21 18:55:00 57.5 16.6 12.5 57.5 57.5 4.2 4.4 3.8 291.0 284.4 0.00 0.0000000 66.3
2021-10-21 19:00:00 56.6 17.3 12.6 56.6 56.6 3.7 4.6 4.1 262.7 277.2 0.00 0.0000000 66.2
2021-10-21 19:05:00 55.7 17.3 11.9 55.7 55.7 3.8 4.2 3.6 204.7 251.6 0.00 0.0000000 66.1
2021-10-21 19:10:00 53.7 18.7 12.0 53.7 53.7 4.2 4.2 3.7 216.5 211.5 0.00 0.0000000 66.0
2021-10-21 19:15:00 54.9 17.9 11.9 54.9 54.9 3.0 4.7 3.8 211.1 217.0 0.00 0.0000000 65.9
2021-10-21 19:20:00 54.9 18.0 12.1 54.9 54.9 3.0 3.3 3.0 195.5 213.5 0.00 0.0000000 65.9
2021-10-21 19:25:00 54.9 18.1 12.2 54.9 54.9 4.7 5.1 4.0 209.5 214.0 0.00 0.0000000 65.8
2021-10-21 19:30:00 54.8 18.1 12.2 54.8 54.8 4.2 5.1 4.7 214.2 213.3 0.00 0.0000000 65.7
2021-10-21 19:35:00 54.2 18.8 12.5 54.2 54.2 3.3 4.6 3.8 245.3 225.3 0.00 0.0000000 65.6
2021-10-21 19:40:00 53.1 20.0 13.0 53.1 53.1 4.2 4.6 4.0 274.1 264.4 0.00 0.0000000 65.5
2021-10-21 19:45:00 52.0 20.6 12.8 52.0 52.0 4.6 4.7 3.7 266.1 280.6 0.00 0.0000000 65.4
2021-10-21 19:50:00 52.4 20.7 13.2 52.4 52.4 4.9 5.6 5.0 251.9 252.9 0.00 0.0000000 65.3
2021-10-21 19:55:00 52.1 21.1 13.4 52.1 52.1 5.8 6.0 5.2 245.5 245.9 0.00 0.0000000 65.2
2021-10-21 20:00:00 50.0 22.4 13.0 50.0 50.0 4.6 6.0 4.8 218.2 219.7 0.00 0.0000000 65.1
2021-10-21 20:05:00 48.8 23.5 13.1 48.8 48.8 3.0 4.6 3.9 258.8 240.1 0.00 0.0000000 65.0
2021-10-21 20:10:00 48.0 24.0 12.9 47.2 48.0 3.1 3.1 2.7 217.9 225.6 0.00 0.0000000 64.9
2021-10-21 20:15:00 48.3 23.8 13.0 47.2 48.3 3.7 5.1 4.0 228.1 226.1 0.00 0.0000000 64.8
2021-10-21 20:20:00 48.0 24.2 13.1 48.0 48.0 2.4 3.7 2.9 214.1 220.4 0.00 0.0000000 64.7
2021-10-21 20:25:00 47.9 24.1 12.9 47.9 47.9 2.2 2.8 2.4 212.3 217.9 0.00 0.0000000 64.6
2021-10-21 20:30:00 47.4 23.8 12.2 47.4 47.4 2.2 2.4 2.2 230.1 222.9 0.00 0.0000000 64.5
2021-10-21 20:35:00 47.2 25.7 13.8 46.0 47.2 3.5 3.7 2.7 287.5 268.3 0.00 0.0000000 64.4
2021-10-21 20:40:00 48.1 24.6 13.5 46.7 48.1 4.0 4.4 3.9 263.4 275.9 0.00 0.0000000 64.3
2021-10-21 20:45:00 48.5 24.0 13.3 46.7 48.5 4.6 4.6 4.0 280.1 279.0 0.00 0.0000000 64.2
2021-10-21 20:50:00 48.7 23.9 13.4 46.9 48.7 4.6 5.1 4.6 257.6 274.2 0.00 0.0000000 64.1
2021-10-21 20:55:00 48.4 23.9 13.2 46.6 48.4 4.6 5.1 4.6 259.8 272.1 0.00 0.0000000 64.0
2021-10-21 21:00:00 48.9 23.4 13.1 48.1 48.9 3.3 5.3 4.3 247.2 261.4 0.00 0.0000000 63.9
2021-10-21 21:05:00 48.4 23.7 12.9 48.4 48.4 1.7 3.7 3.1 223.8 254.6 0.00 0.0000000 63.8
2021-10-21 21:10:00 46.8 24.9 12.6 46.8 46.8 2.4 3.0 2.5 241.5 239.1 0.00 0.0000000 63.7
2021-10-21 21:15:00 45.8 26.1 12.9 44.4 45.8 3.5 4.0 3.1 266.2 263.3 0.00 0.0000000 63.6
2021-10-21 21:20:00 45.4 26.1 12.6 44.0 45.4 3.5 3.8 3.2 235.3 246.8 0.00 0.0000000 63.4
2021-10-21 21:25:00 45.3 26.1 12.5 44.0 45.3 3.3 3.8 3.5 242.1 244.8 0.00 0.0000000 63.3
2021-10-21 21:30:00 44.9 26.6 12.6 43.5 44.9 3.3 3.5 3.0 278.4 251.1 0.00 0.0000000 63.2
2021-10-21 21:35:00 45.1 27.0 13.1 45.1 45.1 2.4 3.8 3.0 282.6 276.9 0.00 0.0000000 63.1
2021-10-21 21:40:00 44.9 26.7 12.7 43.8 44.9 3.1 3.7 3.1 250.5 262.2 0.00 0.0000000 63.0
2021-10-21 21:45:00 45.0 26.4 12.5 45.0 45.0 2.6 3.7 2.9 268.5 256.6 0.00 0.0000000 62.9
2021-10-21 21:50:00 45.3 25.4 11.9 45.3 45.3 3.0 3.8 3.3 264.8 270.7 0.00 0.0000000 62.8
2021-10-21 21:55:00 45.0 25.4 11.6 45.0 45.0 2.2 3.1 2.5 253.8 261.9 0.00 0.0000000 62.7
2021-10-21 22:00:00 45.0 24.4 10.7 43.2 45.0 3.8 4.0 3.4 260.5 231.0 0.00 0.0000000 62.6
2021-10-21 22:05:00 44.2 25.5 11.0 42.5 44.2 3.7 3.8 3.2 229.6 234.1 0.00 0.0000000 62.5
2021-10-21 22:10:00 42.3 28.0 11.4 39.6 42.3 4.4 4.7 4.2 225.4 227.3 0.00 0.0000000 62.4
2021-10-21 22:15:00 41.6 28.7 11.4 39.2 41.6 4.0 4.6 4.3 212.6 224.1 0.00 0.0000000 62.3
2021-10-21 22:20:00 42.3 27.9 11.4 42.3 42.3 3.0 4.2 3.3 237.3 236.2 0.00 0.0000000 62.2
2021-10-21 22:25:00 42.7 26.8 10.9 42.7 42.7 2.6 3.1 2.9 248.1 234.6 0.00 0.0000000 62.1
2021-10-21 22:30:00 42.7 26.7 10.7 41.1 42.7 3.3 3.5 3.0 262.3 249.7 0.00 0.0000000 62.0
2021-10-21 22:35:00 42.6 26.4 10.4 40.3 42.6 4.0 4.6 3.6 262.2 257.0 0.00 0.0000000 61.8
2021-10-21 22:40:00 43.3 25.5 10.2 40.8 43.3 4.4 4.6 4.0 250.5 266.2 0.00 0.0000000 61.7
2021-10-21 22:45:00 44.3 24.3 10.0 42.1 44.3 4.2 4.7 4.4 265.6 266.3 0.00 0.0000000 61.6
2021-10-21 22:50:00 45.0 23.7 10.1 43.7 45.0 3.3 4.7 3.9 253.4 259.5 0.00 0.0000000 61.5
2021-10-21 22:55:00 43.5 25.2 10.2 41.4 43.5 4.0 4.0 3.4 267.9 250.4 0.00 0.0000000 61.4
2021-10-21 23:00:00 43.6 24.8 9.9 41.4 43.6 4.0 4.6 4.0 249.9 261.8 0.00 0.0000000 61.3
2021-10-21 23:05:00 44.5 23.9 9.8 42.6 44.5 3.8 4.7 4.1 241.1 258.0 0.00 0.0000000 61.2
2021-10-21 23:10:00 42.5 26.1 10.1 40.5 42.5 3.7 3.8 3.6 214.2 218.6 0.00 0.0000000 61.1
2021-10-21 23:15:00 42.1 26.3 9.9 39.6 42.1 4.2 4.2 4.0 231.9 226.1 0.00 0.0000000 61.0
2021-10-21 23:20:00 42.2 26.3 10.0 40.3 42.2 3.5 4.2 3.8 268.9 247.9 0.00 0.0000000 60.8
2021-10-21 23:25:00 42.3 26.7 10.4 40.0 42.3 4.0 4.2 3.4 279.7 277.7 0.00 0.0000000 60.7
2021-10-21 23:30:00 43.2 25.6 10.3 40.6 43.2 4.6 4.9 4.4 279.5 277.1 0.00 0.0000000 60.6
2021-10-21 23:35:00 43.2 25.7 10.3 40.8 43.2 4.2 4.7 4.1 274.5 275.1 0.00 0.0000000 60.5
2021-10-21 23:40:00 44.8 23.8 10.0 42.6 44.8 4.2 4.9 4.3 269.2 280.3 0.00 0.0000000 60.4
2021-10-21 23:45:00 46.9 22.2 10.2 45.9 46.9 3.3 4.2 3.7 260.0 287.1 0.00 0.0000000 60.3
2021-10-21 23:50:00 46.5 22.6 10.2 46.5 46.5 2.4 6.0 4.7 227.0 268.1 0.00 0.0000000 60.2
2021-10-21 23:55:00 45.8 23.5 10.6 43.3 45.8 4.9 5.3 4.1 276.9 267.7 0.00 0.0000000 60.1
2021-10-22 00:00:00 46.3 23.3 10.7 43.7 46.3 5.1 5.8 5.1 252.8 273.7 0.00 0.0000000 60.0
2021-10-22 00:05:00 45.9 23.6 10.7 42.9 45.9 5.8 6.5 5.8 267.0 275.6 0.00 0.0000000 59.9
2021-10-22 00:10:00 46.3 23.3 10.7 43.5 46.3 5.5 6.3 5.5 270.3 273.3 0.00 0.0000000 59.8
2021-10-22 00:15:00 43.0 26.0 10.4 40.9 43.0 3.8 5.6 4.0 274.6 228.7 0.00 0.0000000 59.7
2021-10-22 00:20:00 43.3 26.0 10.7 40.9 43.3 4.2 5.8 4.6 265.0 269.3 0.00 0.0000000 59.6
2021-10-22 00:25:00 43.8 25.7 10.8 42.1 43.8 3.5 5.6 4.2 246.9 253.1 0.00 0.0000000 59.5
2021-10-22 00:30:00 43.1 26.7 11.1 41.0 43.1 3.8 4.6 3.7 278.8 259.8 0.00 0.0000000 59.4
2021-10-22 00:35:00 43.4 26.5 11.2 40.7 43.4 4.6 5.5 4.3 226.9 262.5 0.00 0.0000000 59.3
2021-10-22 00:40:00 41.6 27.9 10.8 38.6 41.6 4.7 5.5 4.2 256.3 235.9 0.00 0.0000000 59.2
2021-10-22 00:45:00 43.4 27.0 11.6 40.4 43.4 5.1 5.8 5.3 263.8 267.7 0.00 0.0000000 59.1
2021-10-22 00:50:00 45.1 25.7 11.9 42.0 45.1 5.6 5.6 5.1 278.6 274.3 0.00 0.0000000 59.1
2021-10-22 00:55:00 45.0 25.8 11.9 43.5 45.0 3.5 6.0 4.4 243.9 263.1 0.00 0.0000000 59.0
2021-10-22 01:00:00 43.3 27.3 11.8 40.9 43.3 4.2 4.7 4.1 279.3 248.1 0.00 0.0000000 58.9
2021-10-22 01:05:00 43.2 27.7 12.0 39.9 43.2 5.5 5.5 4.5 291.7 276.9 0.00 0.0000000 58.8
2021-10-22 01:10:00 44.5 26.6 12.2 41.6 44.5 5.1 6.0 5.2 264.2 275.6 0.00 0.0000000 58.7
2021-10-22 01:15:00 44.1 27.4 12.5 41.5 44.1 4.7 5.6 4.6 241.0 243.1 0.00 0.0000000 58.6
2021-10-22 01:20:00 43.2 28.3 12.5 41.2 43.2 3.8 5.3 3.9 252.6 241.9 0.00 0.0000000 58.6
2021-10-22 01:25:00 44.0 28.0 12.9 41.1 44.0 5.1 5.6 4.7 281.7 270.0 0.00 0.0000000 58.5
2021-10-22 01:30:00 45.1 27.3 13.3 42.6 45.1 4.7 6.0 5.4 275.5 284.2 0.00 0.0000000 58.4
2021-10-22 01:35:00 44.8 27.5 13.2 41.6 44.8 5.8 7.1 5.3 287.6 280.9 0.00 0.0000000 58.3
2021-10-22 01:40:00 44.6 27.6 13.2 41.2 44.6 6.0 6.5 5.6 271.8 284.5 0.00 0.0000000 58.3
2021-10-22 01:45:00 43.2 29.0 13.1 40.4 43.2 4.7 6.2 4.7 260.3 258.0 0.00 0.0000000 58.2
2021-10-22 01:50:00 43.2 29.2 13.2 40.6 43.2 4.4 5.6 4.7 268.0 259.2 0.00 0.0000000 58.2
2021-10-22 01:55:00 44.5 28.4 13.6 41.8 44.5 4.9 5.8 5.0 272.9 270.1 0.00 0.0000000 58.1
2021-10-22 02:00:00 44.6 27.9 13.4 42.9 44.6 3.7 5.6 4.7 216.5 261.0 0.00 0.0000000 58.0
2021-10-22 02:05:00 41.1 30.6 12.4 38.1 41.1 4.6 4.6 4.1 194.2 214.6 0.00 0.0000000 57.9
2021-10-22 02:10:00 38.9 33.8 12.7 36.3 38.9 3.7 4.4 4.1 228.0 224.6 0.00 0.0000000 57.9
2021-10-22 02:15:00 40.9 33.0 13.9 38.0 40.9 4.4 4.4 3.6 275.3 269.3 0.00 0.0000000 57.8
2021-10-22 02:20:00 43.7 30.0 14.2 41.5 43.7 4.0 5.5 4.6 270.1 268.9 0.00 0.0000028 57.7
2021-10-22 02:25:00 43.1 30.3 13.9 41.0 43.1 3.8 4.4 3.6 232.7 244.1 0.00 0.0000000 57.7
2021-10-22 02:30:00 41.9 32.2 14.3 39.5 41.9 4.0 4.7 3.6 278.1 263.9 0.00 0.0000000 57.6
2021-10-22 02:35:00 42.5 30.9 13.9 39.3 42.5 5.1 5.6 5.0 285.2 277.6 0.00 0.0000000 57.5
2021-10-22 02:40:00 42.6 30.8 13.9 40.4 42.6 3.8 5.8 4.5 262.2 258.9 0.00 0.0000000 57.5
2021-10-22 02:45:00 41.8 31.8 13.9 39.2 41.8 4.2 4.4 3.6 266.6 258.2 0.00 0.0000000 57.4
2021-10-22 02:50:00 43.4 30.1 14.1 41.9 43.4 3.3 5.6 4.9 266.8 280.3 0.00 0.0000000 57.3
2021-10-22 02:55:00 43.5 30.1 14.2 40.5 43.5 5.1 5.1 3.8 267.9 266.1 0.00 0.0000000 57.3
2021-10-22 03:00:00 43.5 30.1 14.2 40.4 43.5 5.3 6.2 5.1 269.2 278.2 0.00 0.0000000 57.2

Data is courtesy of the NM Climate Center. DO NOT USE IN LEGAL PROCEEDINGS.